Time;durP1;ratioP1;P1;durP2;ratioP2;P2;SDS_P1;SDS_P2;PMS_P1;PMS_P2;Temp;Humidity;BMP_temperature;BMP_pressure;BME280_temperature;BME280_humidity;BME280_pressure;Samples;Min_cycle;Max_cycle;Signal;HPM_P1;HPM_P2
2023/05/27 00:00:54;;;;;;;;;1.25;1.25;;;;;12.22;59.73;103042.78;5053238;28;9978;-68
2023/05/27 00:03:20;;;;;;;;;2.50;2.50;;;;;12.29;59.78;103051.16;5052978;28;9989;-68
2023/05/27 00:05:47;;;;;;;;;2.50;2.25;;;;;12.31;59.52;103041.03;5049628;28;9970;-68
2023/05/27 00:08:14;;;;;;;;;2.00;1.00;;;;;12.31;59.60;103043.72;5048250;28;9866;-68
2023/05/27 00:10:40;;;;;;;;;3.00;1.00;;;;;12.28;59.43;103042.19;5052909;28;9741;-67
2023/05/27 00:13:07;;;;;;;;;2.00;2.00;;;;;12.21;59.54;103043.81;5053519;28;9746;-66
2023/05/27 00:15:34;;;;;;;;;2.00;2.00;;;;;12.16;59.12;103047.97;5052349;28;9943;-67
2023/05/27 00:18:02;;;;;;;;;2.75;2.75;;;;;12.06;60.07;103027.25;5051810;28;9929;-67
2023/05/27 00:20:30;;;;;;;;;1.25;1.25;;;;;12.01;60.18;103042.22;5034057;28;9915;-69
2023/05/27 00:22:59;;;;;;;;;3.00;2.00;;;;;12.02;59.87;103039.34;5034899;28;10552;-68
2023/05/27 00:25:26;;;;;;;;;7.00;2.00;;;;;12.01;60.41;103032.25;5052210;28;9993;-69
2023/05/27 00:27:54;;;;;;;;;2.25;2.25;;;;;11.96;59.85;103023.75;5051898;28;9903;-69
2023/05/27 00:30:21;;;;;;;;;2.00;1.00;;;;;11.89;60.25;103019.97;5034844;28;10045;-67
2023/05/27 00:32:48;;;;;;;;;5.00;2.75;;;;;11.81;60.60;103026.06;5049625;28;9954;-68
2023/05/27 00:35:14;;;;;;;;;4.50;2.75;;;;;11.79;61.22;103027.22;5029511;28;9928;-67
2023/05/27 00:37:41;;;;;;;;;2.50;2.50;;;;;11.84;61.20;103024.97;5034503;28;9997;-68
2023/05/27 00:40:11;;;;;;;;;3.25;2.00;;;;;11.88;61.01;103029.06;5051618;28;10001;-67
2023/05/27 00:42:37;;;;;;;;;2.00;2.00;;;;;11.93;60.72;103020.50;5032107;28;10075;-67
2023/05/27 00:45:04;;;;;;;;;2.25;2.25;;;;;11.91;61.34;103028.78;5033109;28;9906;-66
2023/05/27 00:47:33;;;;;;;;;3.50;3.50;;;;;11.95;61.46;103030.16;5052330;28;10016;-68
2023/05/27 00:50:00;;;;;;;;;1.25;1.25;;;;;11.98;61.47;103032.53;5034351;28;9914;-68
2023/05/27 00:52:28;;;;;;;;;7.00;3.00;;;;;11.97;60.65;103024.63;5034350;28;10103;-67
2023/05/27 00:54:56;;;;;;;;;3.50;2.00;;;;;11.98;61.27;103031.69;5049747;28;9950;-67
2023/05/27 00:57:22;;;;;;;;;5.25;3.50;;;;;11.87;60.92;103030.91;5051235;28;9925;-67
2023/05/27 00:59:49;;;;;;;;;4.25;2.00;;;;;11.87;61.87;103030.06;5038476;28;10147;-66
2023/05/27 01:02:16;;;;;;;;;2.00;2.00;;;;;11.95;61.79;103029.28;5034323;28;9990;-67
2023/05/27 01:04:46;;;;;;;;;3.25;1.00;;;;;12.07;61.66;103033.50;5049771;28;9980;-66
2023/05/27 01:07:38;;;;;;;;;4.00;1.00;;;;;12.12;61.61;103025.81;5050749;28;9898;-67
2023/05/27 01:10:31;;;;;;;;;2.00;2.00;;;;;12.09;61.09;103023.41;5044199;28;10075;-67
2023/05/27 01:13:12;;;;;;;;;3.25;2.00;;;;;12.00;61.94;103022.47;5025902;28;9934;-67
2023/05/27 01:15:40;;;;;;;;;3.00;2.50;;;;;11.98;62.07;103018.22;5051576;28;9988;-65
2023/05/27 01:18:09;;;;;;;;;3.00;3.00;;;;;11.94;62.25;103023.06;5034457;28;10114;-66
2023/05/27 01:20:40;;;;;;;;;3.50;3.00;;;;;11.95;62.15;103016.69;5038766;28;10787;-67
2023/05/27 01:23:11;;;;;;;;;4.50;1.75;;;;;11.97;62.06;103013.81;5051167;28;10134;-66
2023/05/27 01:25:37;;;;;;;;;2.00;2.00;;;;;11.94;62.07;103011.41;5032438;28;10052;-66
2023/05/27 01:28:04;;;;;;;;;1.00;1.00;;;;;11.90;62.17;103018.94;5052001;28;9988;-66
2023/05/27 01:30:31;;;;;;;;;4.25;2.50;;;;;11.82;61.80;103026.91;5032978;28;10744;-67
2023/05/27 01:33:06;;;;;;;;;3.50;2.25;;;;;11.68;62.42;103025.56;5033849;28;10072;-68
2023/05/27 01:35:52;;;;;;;;;3.50;2.25;;;;;11.60;62.74;103018.22;5037786;28;10815;-67
2023/05/27 01:38:23;;;;;;;;;2.00;2.00;;;;;11.59;62.61;103011.13;5051841;28;10771;-66
2023/05/27 01:40:50;;;;;;;;;2.00;2.00;;;;;11.58;62.64;103011.25;5032050;28;10793;-67
2023/05/27 01:43:18;;;;;;;;;2.50;2.50;;;;;11.57;62.84;103014.94;5051275;28;9991;-68
2023/05/27 01:45:45;;;;;;;;;2.00;2.00;;;;;11.48;62.23;103010.44;5033582;28;10799;-67
2023/05/27 01:48:12;;;;;;;;;1.50;1.50;;;;;11.46;63.12;103004.34;5050265;28;10043;-65
2023/05/27 01:50:38;;;;;;;;;4.50;3.00;;;;;11.41;63.19;103012.88;5032786;28;9991;-66
2023/05/27 01:53:05;;;;;;;;;1.00;1.00;;;;;11.36;63.75;103002.53;5033337;28;10977;-68
2023/05/27 01:55:32;;;;;;;;;2.00;2.00;;;;;11.37;63.50;103001.53;5031620;28;9977;-66
2023/05/27 01:57:58;;;;;;;;;2.25;2.00;;;;;11.37;63.73;102996.13;5050050;28;10131;-66
2023/05/27 02:00:25;;;;;;;;;1.25;1.00;;;;;11.38;63.33;102992.47;5033521;28;10118;-67
2023/05/27 02:02:51;;;;;;;;;5.50;5.00;;;;;11.38;63.68;102999.66;5049098;28;10237;-67
2023/05/27 02:05:18;;;;;;;;;2.00;1.75;;;;;11.35;63.66;103000.84;5016373;28;10169;-67
2023/05/27 02:07:46;;;;;;;;;2.75;2.00;;;;;11.37;64.07;103003.38;5033509;28;10140;-68
2023/05/27 02:10:13;;;;;;;;;2.00;2.00;;;;;11.42;63.66;103011.88;5027569;28;10073;-68
2023/05/27 02:12:40;;;;;;;;;2.00;2.00;;;;;11.37;63.83;103004.22;5031238;28;10135;-67
2023/05/27 02:15:08;;;;;;;;;5.00;2.00;;;;;11.30;63.85;103007.63;5029908;28;10056;-66
2023/05/27 02:17:34;;;;;;;;;2.00;2.00;;;;;11.27;63.87;103010.66;5031914;28;10178;-68
2023/05/27 02:20:01;;;;;;;;;1.75;1.75;;;;;11.32;64.37;103017.28;5042737;28;10141;-67
2023/05/27 02:22:27;;;;;;;;;3.00;1.00;;;;;11.34;63.75;103004.53;5050268;28;10678;-67
2023/05/27 02:24:54;;;;;;;;;3.00;3.00;;;;;11.27;64.25;103002.56;5025108;28;10210;-68
2023/05/27 02:27:21;;;;;;;;;3.25;2.50;;;;;11.28;64.58;102998.88;5029670;28;10033;-67
2023/05/27 02:29:47;;;;;;;;;6.00;3.00;;;;;11.35;64.39;102998.13;5032047;28;10431;-69
2023/05/27 02:32:15;;;;;;;;;6.00;3.00;;;;;11.35;64.16;102992.75;5032061;28;10094;-67
2023/05/27 02:34:43;;;;;;;;;6.50;2.00;;;;;11.39;63.87;102994.16;5030929;28;10200;-67
2023/05/27 02:37:11;;;;;;;;;5.50;3.00;;;;;11.35;64.04;102992.75;5039312;28;9997;-66
2023/05/27 02:39:38;;;;;;;;;3.00;2.75;;;;;11.29;63.70;102995.16;5023676;28;10182;-67
2023/05/27 02:42:06;;;;;;;;;2.00;2.00;;;;;11.12;64.18;102994.91;5036404;28;10189;-66
2023/05/27 02:44:32;;;;;;;;;2.50;2.00;;;;;11.08;65.09;102992.66;5053384;28;9938;-68
2023/05/27 02:46:59;;;;;;;;;5.50;2.00;;;;;11.14;64.48;103000.19;5036604;28;10233;-66
2023/05/27 02:49:26;;;;;;;;;5.00;2.25;;;;;11.14;64.92;103005.56;5035860;28;10245;-68
2023/05/27 02:51:53;;;;;;;;;2.25;2.00;;;;;11.09;64.72;102997.91;5051900;28;10235;-67
2023/05/27 02:54:19;;;;;;;;;2.75;2.00;;;;;11.12;64.88;102999.47;5030971;28;10228;-66
2023/05/27 02:56:46;;;;;;;;;5.75;4.50;;;;;11.10;64.97;103007.72;5035564;28;10356;-66
2023/05/27 02:59:12;;;;;;;;;4.75;2.75;;;;;11.11;65.18;103004.00;5035025;28;10229;-68
2023/05/27 03:01:39;;;;;;;;;6.00;2.00;;;;;11.10;65.32;102996.06;5036497;28;10920;-66
2023/05/27 03:04:06;;;;;;;;;3.50;2.75;;;;;11.15;64.69;103001.88;5037282;28;10227;-66
2023/05/27 03:06:32;;;;;;;;;3.25;3.25;;;;;11.08;65.01;102998.06;5047569;28;10238;-67
2023/05/27 03:08:59;;;;;;;;;4.25;4.00;;;;;11.12;65.18;103002.16;5052186;28;10875;-68
2023/05/27 03:11:26;;;;;;;;;1.50;1.50;;;;;11.16;65.57;102998.19;5053714;28;10175;-67
2023/05/27 03:13:52;;;;;;;;;2.00;2.00;;;;;11.16;65.11;102994.63;5051082;28;9972;-66
2023/05/27 03:16:19;;;;;;;;;1.75;1.50;;;;;11.21;65.11;102990.50;5035973;28;10129;-67
2023/05/27 03:18:46;;;;;;;;;3.00;3.00;;;;;11.13;65.23;103001.16;5032626;28;10020;-67
2023/05/27 03:21:13;;;;;;;;;2.50;2.00;;;;;11.10;65.63;102998.75;5031885;28;11012;-67
2023/05/27 03:23:40;;;;;;;;;2.75;2.25;;;;;11.01;65.72;103005.00;5033373;28;10281;-66
2023/05/27 03:26:07;;;;;;;;;2.25;1.75;;;;;10.98;66.01;102991.81;5032110;28;10228;-66
2023/05/27 03:28:34;;;;;;;;;1.50;1.50;;;;;10.95;66.33;102995.66;5036782;28;10523;-67
2023/05/27 03:31:00;;;;;;;;;6.75;5.50;;;;;10.98;66.55;102991.81;5036591;28;9981;-66
2023/05/27 03:33:44;;;;;;;;;7.00;2.00;;;;;10.98;66.03;102989.13;5031362;28;10304;-67
2023/05/27 03:36:11;;;;;;;;;4.00;3.00;;;;;10.87;66.12;102993.69;5033823;28;10465;-66
2023/05/27 03:38:37;;;;;;;;;3.00;2.25;;;;;10.80;66.77;102995.25;5053964;28;10300;-66
2023/05/27 03:41:04;;;;;;;;;6.75;2.75;;;;;10.79;67.20;102992.72;5035560;28;10380;-67
2023/05/27 03:43:34;;;;;;;;;2.25;2.25;;;;;10.86;67.24;102992.00;5035227;28;10357;-67
2023/05/27 03:46:01;;;;;;;;;4.25;3.50;;;;;10.92;66.84;102990.56;5052767;28;11071;-66
2023/05/27 03:48:28;;;;;;;;;4.00;3.00;;;;;10.98;67.00;102983.72;5049585;28;10530;-66
2023/05/27 03:50:54;;;;;;;;;7.00;5.00;;;;;10.93;66.21;102986.84;5035051;28;10203;-67
2023/05/27 03:53:22;;;;;;;;;3.50;2.75;;;;;10.88;67.42;102986.44;5034629;28;10240;-67
2023/05/27 03:55:48;;;;;;;;;1.25;1.25;;;;;10.87;67.56;102982.91;5052114;28;10168;-66
2023/05/27 03:58:22;;;;;;;;;4.00;1.75;;;;;10.86;67.39;102981.22;5053220;28;10081;-67
2023/05/27 04:00:49;;;;;;;;;2.00;1.75;;;;;10.84;67.32;102974.25;5035117;28;10230;-67
2023/05/27 04:03:16;;;;;;;;;1.75;1.75;;;;;10.92;67.53;102974.38;5033330;28;10387;-66
2023/05/27 04:05:42;;;;;;;;;5.25;4.50;;;;;10.91;67.52;102977.25;5034852;28;10222;-68
2023/05/27 04:08:09;;;;;;;;;2.00;2.00;;;;;10.93;67.48;102981.47;5052780;28;10463;-67
2023/05/27 04:10:35;;;;;;;;;6.50;3.00;;;;;10.85;67.14;102971.41;5037156;28;11068;-67
2023/05/27 04:13:02;;;;;;;;;3.00;2.00;;;;;10.89;68.08;102969.28;5018717;28;10394;-66
2023/05/27 04:15:28;;;;;;;;;3.25;1.75;;;;;10.92;67.61;102973.53;5034931;28;11432;-66
2023/05/27 04:17:57;;;;;;;;;4.25;3.75;;;;;10.95;67.79;102973.25;5026594;28;10508;-68
2023/05/27 04:20:24;;;;;;;;;2.50;2.00;;;;;10.99;67.38;102967.44;5052937;28;10133;-66
2023/05/27 04:22:56;;;;;;;;;5.00;4.00;;;;;10.86;67.05;102973.13;5035098;28;10318;-66
2023/05/27 04:25:23;;;;;;;;;6.75;2.75;;;;;10.81;67.45;102975.38;5051923;28;10230;-67
2023/05/27 04:28:18;;;;;;;;;5.00;4.00;;;;;10.72;67.41;102962.78;5042676;28;10172;-66
2023/05/27 04:30:47;;;;;;;;;2.00;2.00;;;;;10.71;68.31;102971.88;5031625;28;10190;-68
2023/05/27 04:33:26;;;;;;;;;2.00;2.00;;;;;10.78;68.51;102970.31;5031268;28;10175;-68
2023/05/27 04:35:53;;;;;;;;;5.00;3.00;;;;;10.83;68.23;102961.78;5033942;28;10287;-67
2023/05/27 04:38:20;;;;;;;;;3.50;2.25;;;;;10.86;68.36;102964.22;5034757;28;10149;-67
2023/05/27 04:40:59;;;;;;;;;2.50;1.75;;;;;10.89;68.51;102964.75;5041071;28;10220;-67
2023/05/27 04:43:44;;;;;;;;;5.00;4.25;;;;;10.95;67.48;102981.34;5050692;28;10298;-70
2023/05/27 04:46:14;;;;;;;;;6.00;3.00;;;;;10.89;67.51;102983.59;5032980;28;10195;-69
2023/05/27 04:48:44;;;;;;;;;4.00;4.00;;;;;10.83;68.15;102976.09;5033997;28;10196;-70
2023/05/27 04:51:11;;;;;;;;;4.75;3.00;;;;;10.85;69.04;102975.94;5033469;28;10347;-69
2023/05/27 04:53:38;;;;;;;;;5.00;2.75;;;;;10.89;68.27;102975.50;5034321;28;10307;-69
2023/05/27 04:56:04;;;;;;;;;5.75;4.25;;;;;10.92;67.98;102978.94;5033656;28;10321;-69
2023/05/27 04:58:32;;;;;;;;;5.00;5.00;;;;;10.80;68.06;102984.47;5034361;28;10281;-69
2023/05/27 05:01:01;;;;;;;;;8.75;2.00;;;;;10.74;68.78;102978.81;5030128;28;10346;-69
2023/05/27 05:03:39;;;;;;;;;2.50;2.50;;;;;10.81;69.19;102979.94;5017564;28;11090;-69
2023/05/27 05:06:06;;;;;;;;;1.00;1.00;;;;;10.97;69.04;102976.66;5050281;28;10319;-69
2023/05/27 05:08:32;;;;;;;;;7.00;5.00;;;;;11.02;67.93;102974.38;5033254;28;10406;-68
2023/05/27 05:11:00;;;;;;;;;2.00;2.00;;;;;11.08;68.26;102973.81;5030842;28;10383;-69
2023/05/27 05:13:28;;;;;;;;;3.50;2.00;;;;;11.07;67.65;102969.41;5047700;28;10232;-66
2023/05/27 05:15:56;;;;;;;;;4.25;4.25;;;;;10.96;68.06;102972.25;5033472;28;10258;-69
2023/05/27 05:18:22;;;;;;;;;2.50;2.50;;;;;11.01;68.66;102968.13;5050198;28;10222;-70
2023/05/27 05:20:50;;;;;;;;;2.50;1.00;;;;;11.09;67.43;102965.56;5031130;28;10302;-70
2023/05/27 05:23:23;;;;;;;;;5.25;2.50;;;;;11.08;67.70;102963.88;5030585;28;10145;-68
2023/05/27 05:25:54;;;;;;;;;8.75;3.75;;;;;11.10;67.93;102959.19;5050352;28;10323;-70
2023/05/27 05:28:22;;;;;;;;;2.50;2.50;;;;;11.14;67.54;102949.81;5032814;28;10286;-70
2023/05/27 05:30:49;;;;;;;;;7.50;3.50;;;;;11.14;66.96;102963.28;5051551;28;10221;-68
2023/05/27 05:33:17;;;;;;;;;5.75;5.00;;;;;11.23;66.90;102958.03;5033442;28;10346;-68
2023/05/27 05:35:44;;;;;;;;;7.00;5.00;;;;;11.30;66.15;102957.28;5026016;28;10436;-69
2023/05/27 05:38:19;;;;;;;;;3.00;2.50;;;;;11.38;66.70;102949.31;5044217;28;10233;-67
2023/05/27 05:40:51;;;;;;;;;4.25;4.25;;;;;11.53;66.26;102946.97;5031062;28;10216;-69
2023/05/27 05:43:19;;;;;;;;;4.00;4.00;;;;;11.78;66.31;102944.56;5028091;28;10163;-69
2023/05/27 05:45:47;;;;;;;;;4.50;2.00;;;;;12.02;65.87;102942.16;5045277;28;10175;-69
2023/05/27 05:48:16;;;;;;;;;4.75;2.25;;;;;12.23;64.71;102946.44;5032197;28;12149;-68
2023/05/27 05:50:43;;;;;;;;;2.50;2.50;;;;;12.29;63.84;102937.72;5049441;28;10099;-69
2023/05/27 05:53:10;;;;;;;;;2.25;2.00;;;;;12.38;64.02;102931.38;5040240;28;10072;-69
2023/05/27 05:55:37;;;;;;;;;5.50;5.50;;;;;12.48;62.62;102936.72;5032497;28;10074;-69
2023/05/27 05:58:04;;;;;;;;;4.75;3.50;;;;;12.37;63.82;102935.94;5030340;28;10025;-69
2023/05/27 06:00:31;;;;;;;;;2.50;2.00;;;;;12.40;63.58;102928.53;5032869;28;9919;-69
2023/05/27 06:03:18;;;;;;;;;3.00;2.00;;;;;12.39;62.81;102922.28;5049495;28;10066;-69
2023/05/27 06:05:48;;;;;;;;;4.00;2.75;;;;;12.37;63.31;102925.16;5033421;28;9904;-68
2023/05/27 06:08:14;;;;;;;;;4.50;2.75;;;;;12.37;62.97;102925.16;5050620;28;9843;-69
2023/05/27 06:10:48;;;;;;;;;8.25;6.00;;;;;12.39;62.46;102916.88;5032545;28;10026;-68
2023/05/27 06:13:16;;;;;;;;;6.00;4.00;;;;;12.34;62.83;102930.00;5031569;28;10087;-69
2023/05/27 06:15:44;;;;;;;;;5.75;5.50;;;;;12.26;63.01;102927.22;5046785;28;10075;-69
2023/05/27 06:18:11;;;;;;;;;3.00;2.50;;;;;12.15;64.29;102928.28;5049339;28;10011;-69
2023/05/27 06:20:38;;;;;;;;;9.00;4.00;;;;;12.21;63.66;102919.59;5016400;28;10031;-69
2023/05/27 06:23:06;;;;;;;;;4.00;4.00;;;;;12.09;64.03;102926.22;5016499;28;10056;-69
2023/05/27 06:25:33;;;;;;;;;4.50;4.50;;;;;12.03;64.19;102922.28;5047228;28;10181;-68
2023/05/27 06:28:04;;;;;;;;;6.75;5.75;;;;;12.10;64.53;102922.50;5030590;28;9943;-69
2023/05/27 06:30:36;;;;;;;;;4.00;4.00;;;;;12.22;64.12;102905.06;5032002;28;10023;-67
2023/05/27 06:33:06;;;;;;;;;3.00;3.00;;;;;12.17;64.31;102911.97;5047639;28;9953;-69
2023/05/27 06:35:33;;;;;;;;;4.75;2.50;;;;;12.15;64.47;102911.25;5031057;28;10092;-67
2023/05/27 06:38:00;;;;;;;;;5.00;4.50;;;;;12.08;64.66;102914.56;5050172;28;10005;-68
2023/05/27 06:40:26;;;;;;;;;6.50;5.00;;;;;12.12;64.20;102915.13;5032307;28;10007;-69
2023/05/27 06:42:54;;;;;;;;;3.00;3.00;;;;;12.02;64.68;102919.72;5013443;28;10091;-68
2023/05/27 06:45:40;;;;;;;;;5.25;5.25;;;;;11.95;64.57;102914.13;5031977;28;10799;-69
2023/05/27 06:48:28;;;;;;;;;6.00;5.00;;;;;12.08;65.05;102903.78;5029376;28;10126;-69
2023/05/27 06:50:58;;;;;;;;;6.75;5.00;;;;;12.14;64.69;102905.00;5023620;28;10135;-69
2023/05/27 06:53:24;;;;;;;;;6.00;4.50;;;;;12.17;64.16;102893.06;5042635;28;10154;-69
2023/05/27 06:56:10;;;;;;;;;1.75;1.75;;;;;12.30;64.49;102899.75;5031973;28;10231;-68
2023/05/27 06:58:57;;;;;;;;;6.25;4.75;;;;;12.29;63.36;102899.91;5029341;28;9907;-68
2023/05/27 07:01:24;;;;;;;;;6.00;5.25;;;;;12.18;63.31;102905.53;5030546;28;10221;-70
2023/05/27 07:04:00;;;;;;;;;5.25;5.25;;;;;12.16;64.63;102905.72;5025256;28;10215;-69
2023/05/27 07:06:59;;;;;;;;;7.25;5.75;;;;;12.17;64.52;102891.19;5038909;28;10148;-69
2023/05/27 07:09:26;;;;;;;;;6.00;5.00;;;;;12.22;64.38;102899.69;5044850;28;10165;-68
2023/05/27 07:11:54;;;;;;;;;5.00;5.00;;;;;12.18;64.58;102892.88;5030490;28;10146;-66
2023/05/27 07:14:40;;;;;;;;;6.25;6.00;;;;;12.28;64.81;102893.69;5049415;28;10115;-68
2023/05/27 07:17:08;;;;;;;;;5.00;4.50;;;;;12.42;64.46;102891.41;5015931;28;11315;-69
2023/05/27 07:19:35;;;;;;;;;6.50;6.50;;;;;12.47;64.30;102886.38;5044984;28;10009;-69
2023/05/27 07:22:06;;;;;;;;;3.00;1.75;;;;;12.47;64.19;102884.53;5046888;28;10077;-68
2023/05/27 07:24:33;;;;;;;;;5.50;3.00;;;;;12.46;64.09;102887.41;5046883;28;9753;-69
2023/05/27 07:26:59;;;;;;;;;3.25;3.00;;;;;12.46;64.46;102890.09;5047771;28;9924;-69
2023/05/27 07:29:28;;;;;;;;;5.50;4.00;;;;;12.51;64.37;102885.91;5031830;28;9919;-69
2023/05/27 07:32:12;;;;;;;;;6.25;2.75;;;;;12.55;64.42;102891.84;5049474;28;9851;-69
2023/05/27 07:34:41;;;;;;;;;5.00;3.75;;;;;12.62;64.01;102879.41;5031216;28;9923;-69
2023/05/27 07:37:07;;;;;;;;;7.00;7.00;;;;;12.60;63.85;102886.84;5031653;28;10695;-69
2023/05/27 07:39:34;;;;;;;;;6.00;3.75;;;;;12.68;64.08;102878.81;5044728;28;10005;-69
2023/05/27 07:42:01;;;;;;;;;5.00;2.00;;;;;12.72;63.61;102882.88;5031750;28;9860;-69
2023/05/27 07:44:30;;;;;;;;;7.50;5.00;;;;;12.65;63.81;102876.41;5050342;28;9776;-71
2023/05/27 07:46:57;;;;;;;;;5.50;5.00;;;;;12.78;63.72;102878.69;5026129;28;10046;-68
2023/05/27 07:49:25;;;;;;;;;7.75;5.00;;;;;12.94;63.57;102876.09;5026862;28;10065;-71
2023/05/27 07:52:03;;;;;;;;;6.00;6.00;;;;;13.02;62.97;102872.59;5039432;28;9999;-70
2023/05/27 07:54:30;;;;;;;;;4.50;2.25;;;;;13.08;63.06;102871.91;5028287;28;9942;-70
2023/05/27 07:57:00;;;;;;;;;3.50;2.00;;;;;13.11;63.29;102874.31;5028641;28;9927;-70
2023/05/27 07:59:27;;;;;;;;;6.25;6.25;;;;;13.22;63.29;102867.78;5049586;28;9663;-67
2023/05/27 08:01:54;;;;;;;;;2.00;2.00;;;;;13.31;63.04;102864.13;5031621;28;10743;-69
2023/05/27 08:04:20;;;;;;;;;2.00;2.00;;;;;13.22;62.51;102863.22;5014126;28;9824;-68
2023/05/27 08:07:17;;;;;;;;;6.00;6.00;;;;;13.10;62.40;102859.09;5031867;28;9762;-67
2023/05/27 08:09:52;;;;;;;;;9.00;6.75;;;;;13.03;63.49;102861.59;5048040;28;10020;-70
2023/05/27 08:12:41;;;;;;;;;6.25;4.00;;;;;13.09;63.81;102852.84;5040238;28;9992;-67
2023/05/27 08:15:20;;;;;;;;;10.50;7.00;;;;;13.13;63.51;102837.16;5035106;28;9847;-68
2023/05/27 08:18:00;;;;;;;;;4.50;4.50;;;;;13.26;63.73;102840.28;5049234;28;9943;-68
2023/05/27 08:20:37;;;;;;;;;4.50;4.50;;;;;13.35;63.14;102841.16;5034907;28;10023;-71
2023/05/27 08:23:22;;;;;;;;;5.50;5.50;;;;;13.40;62.95;102827.13;5044922;28;9767;-69
2023/05/27 08:26:07;;;;;;;;;5.00;5.00;;;;;13.49;62.77;102824.31;5042217;28;9920;-69
2023/05/27 08:28:51;;;;;;;;;7.25;7.25;;;;;13.53;62.74;102827.50;5034549;28;9858;-69
2023/05/27 08:31:40;;;;;;;;;4.50;4.50;;;;;13.50;62.92;102820.56;5053593;28;9979;-69
2023/05/27 08:34:08;;;;;;;;;5.75;4.50;;;;;13.50;63.25;102820.56;5049360;28;10176;-69
2023/05/27 08:36:35;;;;;;;;;6.00;6.00;;;;;13.55;63.19;102820.06;5034468;28;10316;-68
2023/05/27 08:39:02;;;;;;;;;4.50;4.25;;;;;13.62;63.06;102813.00;5051282;28;9939;-69
2023/05/27 08:41:34;;;;;;;;;5.00;5.00;;;;;13.72;63.11;102807.41;5034689;28;9837;-69
2023/05/27 08:44:03;;;;;;;;;8.50;7.50;;;;;13.73;61.87;102806.41;5034324;28;10654;-68
2023/05/27 08:46:55;;;;;;;;;8.75;6.75;;;;;13.70;62.44;102804.06;5033909;28;10754;-70
2023/05/27 08:49:22;;;;;;;;;9.00;7.25;;;;;13.69;62.66;102808.59;5033913;28;10029;-69
2023/05/27 08:51:51;;;;;;;;;6.75;5.00;;;;;13.68;62.21;102806.06;5051920;28;9911;-69
2023/05/27 08:54:20;;;;;;;;;5.50;5.50;;;;;13.62;62.42;102796.75;5033191;28;9753;-69
2023/05/27 08:56:50;;;;;;;;;9.50;5.00;;;;;13.70;62.56;102793.22;5026048;28;9862;-69
2023/05/27 08:59:17;;;;;;;;;9.00;6.75;;;;;13.77;62.60;102795.09;5049626;28;9979;-70
2023/05/27 09:01:44;;;;;;;;;6.00;4.00;;;;;13.81;62.04;102791.03;5018686;28;9863;-69
2023/05/27 09:04:11;;;;;;;;;3.75;3.00;;;;;13.88;62.29;102791.19;5024677;28;9594;-69
2023/05/27 09:06:38;;;;;;;;;8.50;7.75;;;;;13.87;62.15;102783.25;5048842;28;9837;-69
2023/05/27 09:09:09;;;;;;;;;6.50;5.00;;;;;13.91;62.44;102784.59;5052594;28;9891;-70
2023/05/27 09:11:39;;;;;;;;;7.75;6.75;;;;;13.91;62.07;102777.31;5052289;28;10432;-70
2023/05/27 09:14:06;;;;;;;;;6.00;6.00;;;;;13.91;62.46;102776.50;5034101;28;10273;-70
2023/05/27 09:16:32;;;;;;;;;8.25;8.25;;;;;13.98;62.95;102772.94;5052204;28;9997;-70
2023/05/27 09:18:59;;;;;;;;;9.00;3.75;;;;;14.11;62.53;102775.13;5016578;28;9685;-69
2023/05/27 09:21:28;;;;;;;;;7.25;5.50;;;;;14.15;61.94;102767.50;5051973;28;9736;-70
2023/05/27 09:23:57;;;;;;;;;8.25;8.00;;;;;14.19;61.45;102772.41;5051597;28;9493;-70
2023/05/27 09:26:23;;;;;;;;;9.25;8.25;;;;;14.22;61.61;102763.06;5051068;28;9834;-71
2023/05/27 09:28:50;;;;;;;;;9.75;8.00;;;;;14.23;60.99;102767.50;5051786;28;9733;-70
2023/05/27 09:31:16;;;;;;;;;8.50;6.00;;;;;14.18;61.87;102762.59;5033869;28;9684;-70
2023/05/27 09:33:43;;;;;;;;;4.75;3.25;;;;;14.21;61.94;102769.50;5046041;28;9878;-70
2023/05/27 09:36:09;;;;;;;;;8.00;6.00;;;;;14.24;61.53;102761.06;5051224;28;9657;-71
2023/05/27 09:38:36;;;;;;;;;8.00;7.00;;;;;14.28;61.21;102763.25;5033759;28;9898;-69
2023/05/27 09:41:03;;;;;;;;;5.50;5.00;;;;;14.30;61.75;102766.66;5050497;28;9836;-71
2023/05/27 09:43:30;;;;;;;;;7.00;6.00;;;;;14.39;61.22;102762.06;5048867;28;9674;-70
2023/05/27 09:46:01;;;;;;;;;9.75;9.00;;;;;14.39;61.11;102758.50;5051161;28;9620;-69
2023/05/27 09:48:31;;;;;;;;;8.25;6.00;;;;;14.49;61.39;102754.59;5050440;28;9648;-70
2023/05/27 09:50:59;;;;;;;;;4.50;4.50;;;;;14.61;61.31;102757.78;5051414;28;9790;-70
2023/05/27 09:53:27;;;;;;;;;6.00;6.00;;;;;14.63;60.37;102757.63;5051289;28;9583;-68
2023/05/27 09:55:55;;;;;;;;;4.50;3.75;;;;;14.63;60.94;102753.03;5032706;28;9669;-71
2023/05/27 09:58:23;;;;;;;;;4.00;4.00;;;;;14.62;60.66;102747.78;5049954;28;9533;-71
2023/05/27 10:00:50;;;;;;;;;11.75;8.00;;;;;14.67;60.63;102750.84;5051378;28;9582;-70
2023/05/27 10:03:21;;;;;;;;;8.25;7.75;;;;;14.62;60.35;102745.91;5043002;28;9528;-72
2023/05/27 10:05:49;;;;;;;;;6.25;6.00;;;;;14.63;60.77;102753.03;5050884;28;10346;-70
2023/05/27 10:08:17;;;;;;;;;7.75;6.75;;;;;14.59;60.10;102738.16;5051692;28;9795;-70
2023/05/27 10:10:50;;;;;;;;;7.00;7.00;;;;;14.62;60.33;102734.22;5049370;28;9545;-70
2023/05/27 10:13:20;;;;;;;;;5.67;5.67;;;;;14.72;60.33;102718.63;5024599;28;9555;-71
2023/05/27 10:15:50;;;;;;;;;10.00;7.00;;;;;14.82;59.96;102724.66;5053198;28;9478;-71
2023/05/27 10:18:29;;;;;;;;;8.75;6.00;;;;;14.78;60.29;102726.88;5052497;28;9532;-70
2023/05/27 10:20:57;;;;;;;;;9.25;6.75;;;;;14.68;60.55;102733.53;5049514;28;9505;-71
2023/05/27 10:23:30;;;;;;;;;3.00;3.00;;;;;14.73;61.49;102721.16;5051745;28;9447;-71
2023/05/27 10:26:05;;;;;;;;;5.75;5.00;;;;;14.87;60.83;102733.13;5033129;28;10232;-71
2023/05/27 10:28:40;;;;;;;;;3.33;3.33;;;;;14.97;60.70;102714.75;5049652;28;9473;-70
2023/05/27 10:31:06;;;;;;;;;8.00;8.00;;;;;15.09;59.77;102705.19;5031614;28;9358;-71
2023/05/27 10:33:38;;;;;;;;;8.75;8.50;;;;;15.17;58.89;102712.44;5047718;28;9379;-71
2023/05/27 10:36:14;;;;;;;;;6.00;6.00;;;;;15.11;59.42;102705.03;5043982;28;9631;-71
2023/05/27 10:38:42;;;;;;;;;5.33;5.00;;;;;15.14;60.34;102710.09;5051160;28;9490;-71
2023/05/27 10:41:09;;;;;;;;;15.25;7.50;;;;;15.21;59.46;102702.09;5029699;28;9465;-71
2023/05/27 10:43:36;;;;;;;;;9.50;9.50;;;;;15.21;59.52;102702.94;5046935;28;9422;-69
2023/05/27 10:46:12;;;;;;;;;7.50;7.25;;;;;15.23;59.93;102700.91;5030709;28;10150;-70
2023/05/27 10:48:41;;;;;;;;;7.00;6.00;;;;;15.22;60.05;102693.75;5035147;28;9555;-69
2023/05/27 10:51:08;;;;;;;;;6.25;4.00;;;;;15.29;60.37;102691.19;5049846;28;9382;-69
2023/05/27 10:53:36;;;;;;;;;6.75;6.75;;;;;15.32;60.44;102691.66;5047920;28;9487;-69
2023/05/27 10:56:03;;;;;;;;;5.50;5.25;;;;;15.37;59.28;102688.41;5033002;28;9486;-68
2023/05/27 10:58:37;;;;;;;;;10.00;6.25;;;;;15.43;59.12;102684.13;5048094;28;9380;-70
2023/05/27 11:01:10;;;;;;;;;6.50;6.50;;;;;15.49;60.20;102683.41;5049709;28;9381;-71
2023/05/27 11:03:43;;;;;;;;;8.50;8.00;;;;;15.53;60.14;102677.44;5040680;28;9477;-70
2023/05/27 11:06:10;;;;;;;;;7.50;7.00;;;;;15.61;59.46;102676.53;5048250;28;9463;-68
2023/05/27 11:08:38;;;;;;;;;5.33;5.33;;;;;15.66;60.11;102678.72;5046615;28;9541;-69
2023/05/27 11:11:08;;;;;;;;;6.50;6.50;;;;;15.70;60.31;102664.59;5049218;28;9283;-69
2023/05/27 11:13:40;;;;;;;;;8.25;8.25;;;;;15.75;59.50;102661.31;5031395;28;9607;-69
2023/05/27 11:16:07;;;;;;;;;9.25;9.00;;;;;15.81;60.07;102650.56;5046372;28;10121;-68
2023/05/27 11:18:41;;;;;;;;;6.00;5.00;;;;;15.78;58.61;102659.06;5049159;28;9296;-68
2023/05/27 11:21:09;;;;;;;;;6.00;5.00;;;;;15.76;59.70;102650.28;5046677;28;9372;-68
2023/05/27 11:23:37;;;;;;;;;6.00;6.00;;;;;15.83;59.42;102647.66;5048244;28;9213;-69
2023/05/27 11:26:04;;;;;;;;;8.00;7.00;;;;;15.89;59.47;102648.81;5042314;28;9287;-69
2023/05/27 11:28:31;;;;;;;;;8.00;6.00;;;;;15.91;58.97;102647.56;5045556;28;9292;-67
2023/05/27 11:31:03;;;;;;;;;7.00;7.00;;;;;15.90;59.32;102648.59;5044130;28;9481;-69
2023/05/27 11:33:32;;;;;;;;;9.50;7.25;;;;;15.95;59.02;102648.06;5046773;28;9383;-68
2023/05/27 11:36:07;;;;;;;;;6.75;6.75;;;;;15.93;59.22;102637.38;5047411;28;9375;-68
2023/05/27 11:38:52;;;;;;;;;10.75;9.75;;;;;16.01;58.51;102636.44;5046658;28;9479;-68
2023/05/27 11:41:26;;;;;;;;;6.33;6.00;;;;;16.00;58.81;102630.19;5049435;28;10449;-66